sensor_id;sensor_type;location;lat;lon;timestamp;P1;durP1;ratioP1;P2;durP2;ratioP2
69744;SDS011;57015;50.120;-5.168;2023-11-22T00:02:23;4.37;;;1.03;;
69744;SDS011;57015;50.120;-5.168;2023-11-22T00:04:53;2.78;;;1.00;;
69744;SDS011;57015;50.120;-5.168;2023-11-22T00:07:18;3.43;;;0.80;;
69744;SDS011;57015;50.120;-5.168;2023-11-22T00:09:44;2.80;;;0.60;;
69744;SDS011;57015;50.120;-5.168;2023-11-22T00:12:11;2.85;;;0.75;;
69744;SDS011;57015;50.120;-5.168;2023-11-22T00:14:36;3.63;;;0.63;;
69744;SDS011;57015;50.120;-5.168;2023-11-22T00:17:02;3.25;;;0.73;;
69744;SDS011;57015;50.120;-5.168;2023-11-22T00:19:28;3.10;;;0.75;;
69744;SDS011;57015;50.120;-5.168;2023-11-22T00:21:53;3.80;;;1.00;;
69744;SDS011;57015;50.120;-5.168;2023-11-22T00:24:18;1.97;;;0.73;;
69744;SDS011;57015;50.120;-5.168;2023-11-22T00:26:44;3.53;;;0.90;;
69744;SDS011;57015;50.120;-5.168;2023-11-22T00:29:09;2.45;;;0.80;;
69744;SDS011;57015;50.120;-5.168;2023-11-22T00:31:34;4.07;;;1.07;;
69744;SDS011;57015;50.120;-5.168;2023-11-22T00:34:00;5.27;;;0.80;;
69744;SDS011;57015;50.120;-5.168;2023-11-22T00:36:25;3.40;;;0.83;;
69744;SDS011;57015;50.120;-5.168;2023-11-22T00:38:51;3.90;;;0.97;;
69744;SDS011;57015;50.120;-5.168;2023-11-22T00:41:16;6.13;;;1.13;;
69744;SDS011;57015;50.120;-5.168;2023-11-22T00:43:42;2.60;;;1.10;;
69744;SDS011;57015;50.120;-5.168;2023-11-22T00:46:07;2.47;;;1.10;;
69744;SDS011;57015;50.120;-5.168;2023-11-22T00:48:32;2.33;;;0.60;;
69744;SDS011;57015;50.120;-5.168;2023-11-22T00:50:58;2.57;;;0.63;;
69744;SDS011;57015;50.120;-5.168;2023-11-22T00:53:23;10.67;;;1.30;;
69744;SDS011;57015;50.120;-5.168;2023-11-22T00:55:49;3.22;;;0.63;;
69744;SDS011;57015;50.120;-5.168;2023-11-22T00:58:14;3.22;;;0.98;;
69744;SDS011;57015;50.120;-5.168;2023-11-22T01:00:40;4.40;;;0.73;;
69744;SDS011;57015;50.120;-5.168;2023-11-22T01:03:05;2.53;;;0.80;;
69744;SDS011;57015;50.120;-5.168;2023-11-22T01:05:31;3.37;;;0.67;;
69744;SDS011;57015;50.120;-5.168;2023-11-22T01:07:56;4.60;;;0.70;;
69744;SDS011;57015;50.120;-5.168;2023-11-22T01:10:22;5.60;;;0.90;;
69744;SDS011;57015;50.120;-5.168;2023-11-22T01:12:47;3.30;;;0.90;;
69744;SDS011;57015;50.120;-5.168;2023-11-22T01:15:13;4.90;;;0.90;;
69744;SDS011;57015;50.120;-5.168;2023-11-22T01:17:39;5.40;;;0.80;;
69744;SDS011;57015;50.120;-5.168;2023-11-22T01:20:04;3.00;;;0.60;;
69744;SDS011;57015;50.120;-5.168;2023-11-22T01:22:30;2.10;;;0.70;;
69744;SDS011;57015;50.120;-5.168;2023-11-22T01:24:56;4.20;;;0.70;;
69744;SDS011;57015;50.120;-5.168;2023-11-22T01:27:21;8.27;;;1.23;;
69744;SDS011;57015;50.120;-5.168;2023-11-22T01:29:47;2.58;;;0.77;;
69744;SDS011;57015;50.120;-5.168;2023-11-22T01:32:12;5.00;;;0.87;;
69744;SDS011;57015;50.120;-5.168;2023-11-22T01:34:37;5.93;;;0.70;;
69744;SDS011;57015;50.120;-5.168;2023-11-22T01:37:03;3.70;;;0.70;;
69744;SDS011;57015;50.120;-5.168;2023-11-22T01:39:29;2.72;;;0.65;;
69744;SDS011;57015;50.120;-5.168;2023-11-22T01:41:54;4.07;;;1.00;;
69744;SDS011;57015;50.120;-5.168;2023-11-22T01:44:21;3.50;;;0.70;;
69744;SDS011;57015;50.120;-5.168;2023-11-22T01:46:46;4.63;;;0.87;;
69744;SDS011;57015;50.120;-5.168;2023-11-22T01:49:12;5.07;;;1.00;;
69744;SDS011;57015;50.120;-5.168;2023-11-22T01:51:38;3.72;;;0.70;;
69744;SDS011;57015;50.120;-5.168;2023-11-22T01:54:04;5.18;;;0.90;;
69744;SDS011;57015;50.120;-5.168;2023-11-22T01:56:32;2.85;;;0.63;;
69744;SDS011;57015;50.120;-5.168;2023-11-22T01:58:57;2.13;;;0.70;;
69744;SDS011;57015;50.120;-5.168;2023-11-22T02:01:25;6.10;;;1.83;;
69744;SDS011;57015;50.120;-5.168;2023-11-22T02:03:51;2.85;;;0.85;;
69744;SDS011;57015;50.120;-5.168;2023-11-22T02:06:18;3.10;;;0.70;;
69744;SDS011;57015;50.120;-5.168;2023-11-22T02:08:44;1.90;;;0.40;;
69744;SDS011;57015;50.120;-5.168;2023-11-22T02:11:09;1.98;;;0.40;;
69744;SDS011;57015;50.120;-5.168;2023-11-22T02:13:35;2.70;;;0.50;;
69744;SDS011;57015;50.120;-5.168;2023-11-22T02:16:01;4.60;;;0.60;;
69744;SDS011;57015;50.120;-5.168;2023-11-22T02:18:27;2.85;;;0.70;;
69744;SDS011;57015;50.120;-5.168;2023-11-22T02:20:53;2.92;;;0.70;;
69744;SDS011;57015;50.120;-5.168;2023-11-22T02:23:19;3.77;;;0.53;;
69744;SDS011;57015;50.120;-5.168;2023-11-22T02:25:44;2.07;;;0.50;;
69744;SDS011;57015;50.120;-5.168;2023-11-22T02:28:10;5.60;;;0.55;;
69744;SDS011;57015;50.120;-5.168;2023-11-22T02:30:37;2.80;;;0.70;;
69744;SDS011;57015;50.120;-5.168;2023-11-22T02:33:02;3.17;;;0.63;;
69744;SDS011;57015;50.120;-5.168;2023-11-22T02:35:28;2.40;;;0.47;;
69744;SDS011;57015;50.120;-5.168;2023-11-22T02:37:53;3.83;;;0.50;;
69744;SDS011;57015;50.120;-5.168;2023-11-22T02:40:19;4.40;;;0.40;;
69744;SDS011;57015;50.120;-5.168;2023-11-22T02:42:46;2.78;;;0.77;;
69744;SDS011;57015;50.120;-5.168;2023-11-22T02:45:13;2.40;;;0.40;;
69744;SDS011;57015;50.120;-5.168;2023-11-22T02:47:39;3.95;;;0.70;;
69744;SDS011;57015;50.120;-5.168;2023-11-22T02:50:05;2.73;;;0.47;;
69744;SDS011;57015;50.120;-5.168;2023-11-22T02:52:31;4.00;;;0.43;;
69744;SDS011;57015;50.120;-5.168;2023-11-22T02:54:57;1.30;;;0.47;;
69744;SDS011;57015;50.120;-5.168;2023-11-22T02:57:22;2.10;;;0.70;;
69744;SDS011;57015;50.120;-5.168;2023-11-22T02:59:47;2.43;;;0.70;;
69744;SDS011;57015;50.120;-5.168;2023-11-22T03:02:13;2.30;;;0.40;;
69744;SDS011;57015;50.120;-5.168;2023-11-22T03:04:39;3.63;;;0.60;;
69744;SDS011;57015;50.120;-5.168;2023-11-22T03:07:05;2.10;;;0.50;;
69744;SDS011;57015;50.120;-5.168;2023-11-22T03:09:33;2.40;;;0.80;;
69744;SDS011;57015;50.120;-5.168;2023-11-22T03:11:58;2.93;;;0.40;;
69744;SDS011;57015;50.120;-5.168;2023-11-22T03:14:25;1.27;;;0.30;;
69744;SDS011;57015;50.120;-5.168;2023-11-22T03:16:50;1.90;;;0.40;;
69744;SDS011;57015;50.120;-5.168;2023-11-22T03:19:16;2.27;;;0.50;;
69744;SDS011;57015;50.120;-5.168;2023-11-22T03:21:41;1.15;;;0.25;;
69744;SDS011;57015;50.120;-5.168;2023-11-22T03:24:09;3.08;;;0.50;;
69744;SDS011;57015;50.120;-5.168;2023-11-22T03:26:34;2.90;;;0.50;;
69744;SDS011;57015;50.120;-5.168;2023-11-22T03:29:00;6.13;;;0.60;;
69744;SDS011;57015;50.120;-5.168;2023-11-22T03:31:26;2.83;;;0.40;;
69744;SDS011;57015;50.120;-5.168;2023-11-22T03:33:52;2.37;;;0.20;;
69744;SDS011;57015;50.120;-5.168;2023-11-22T03:36:19;2.22;;;0.63;;
69744;SDS011;57015;50.120;-5.168;2023-11-22T03:38:45;1.25;;;0.50;;
69744;SDS011;57015;50.120;-5.168;2023-11-22T03:41:10;3.50;;;0.60;;
69744;SDS011;57015;50.120;-5.168;2023-11-22T03:43:35;2.90;;;0.30;;
69744;SDS011;57015;50.120;-5.168;2023-11-22T03:46:01;1.48;;;0.40;;
69744;SDS011;57015;50.120;-5.168;2023-11-22T03:48:27;3.27;;;0.30;;
69744;SDS011;57015;50.120;-5.168;2023-11-22T03:50:53;4.00;;;0.50;;
69744;SDS011;57015;50.120;-5.168;2023-11-22T03:53:19;2.40;;;0.30;;
69744;SDS011;57015;50.120;-5.168;2023-11-22T03:55:46;2.20;;;0.63;;
69744;SDS011;57015;50.120;-5.168;2023-11-22T03:58:12;3.03;;;0.40;;
69744;SDS011;57015;50.120;-5.168;2023-11-22T04:00:37;2.17;;;0.40;;
69744;SDS011;57015;50.120;-5.168;2023-11-22T04:03:03;2.50;;;0.40;;
69744;SDS011;57015;50.120;-5.168;2023-11-22T04:05:28;5.97;;;0.67;;
69744;SDS011;57015;50.120;-5.168;2023-11-22T04:07:54;1.50;;;0.30;;
69744;SDS011;57015;50.120;-5.168;2023-11-22T04:10:21;2.20;;;0.50;;
69744;SDS011;57015;50.120;-5.168;2023-11-22T04:12:47;1.87;;;0.40;;
69744;SDS011;57015;50.120;-5.168;2023-11-22T04:15:13;1.13;;;0.30;;
69744;SDS011;57015;50.120;-5.168;2023-11-22T04:17:39;1.85;;;0.30;;
69744;SDS011;57015;50.120;-5.168;2023-11-22T04:20:05;2.57;;;0.80;;
69744;SDS011;57015;50.120;-5.168;2023-11-22T04:22:39;1.98;;;0.30;;
69744;SDS011;57015;50.120;-5.168;2023-11-22T04:25:05;3.78;;;0.40;;
69744;SDS011;57015;50.120;-5.168;2023-11-22T04:27:31;2.03;;;0.38;;
69744;SDS011;57015;50.120;-5.168;2023-11-22T04:29:57;2.00;;;0.40;;
69744;SDS011;57015;50.120;-5.168;2023-11-22T04:32:23;2.33;;;0.30;;
69744;SDS011;57015;50.120;-5.168;2023-11-22T04:34:48;2.35;;;0.60;;
69744;SDS011;57015;50.120;-5.168;2023-11-22T04:37:14;2.83;;;0.57;;
69744;SDS011;57015;50.120;-5.168;2023-11-22T04:39:39;7.57;;;0.40;;
69744;SDS011;57015;50.120;-5.168;2023-11-22T04:42:05;3.15;;;0.47;;
69744;SDS011;57015;50.120;-5.168;2023-11-22T04:44:30;2.78;;;0.40;;
69744;SDS011;57015;50.120;-5.168;2023-11-22T04:46:57;3.10;;;0.50;;
69744;SDS011;57015;50.120;-5.168;2023-11-22T04:49:25;1.33;;;0.30;;
69744;SDS011;57015;50.120;-5.168;2023-11-22T04:51:51;1.25;;;0.45;;
69744;SDS011;57015;50.120;-5.168;2023-11-22T04:54:16;3.23;;;0.30;;
69744;SDS011;57015;50.120;-5.168;2023-11-22T04:56:42;1.30;;;0.35;;
69744;SDS011;57015;50.120;-5.168;2023-11-22T04:59:08;2.20;;;0.40;;
69744;SDS011;57015;50.120;-5.168;2023-11-22T05:01:33;3.97;;;0.90;;
69744;SDS011;57015;50.120;-5.168;2023-11-22T05:03:59;4.65;;;0.80;;
69744;SDS011;57015;50.120;-5.168;2023-11-22T05:06:24;3.20;;;0.80;;
69744;SDS011;57015;50.120;-5.168;2023-11-22T05:08:51;2.92;;;0.40;;
69744;SDS011;57015;50.120;-5.168;2023-11-22T05:11:17;1.30;;;0.40;;
69744;SDS011;57015;50.120;-5.168;2023-11-22T05:13:42;1.98;;;0.50;;
69744;SDS011;57015;50.120;-5.168;2023-11-22T05:16:08;4.45;;;0.70;;
69744;SDS011;57015;50.120;-5.168;2023-11-22T05:18:34;3.92;;;1.10;;
69744;SDS011;57015;50.120;-5.168;2023-11-22T05:21:00;2.50;;;0.67;;
69744;SDS011;57015;50.120;-5.168;2023-11-22T05:23:28;2.47;;;0.63;;
69744;SDS011;57015;50.120;-5.168;2023-11-22T05:25:53;2.03;;;0.50;;
69744;SDS011;57015;50.120;-5.168;2023-11-22T05:28:19;4.73;;;0.47;;
69744;SDS011;57015;50.120;-5.168;2023-11-22T05:30:44;2.22;;;0.52;;
69744;SDS011;57015;50.120;-5.168;2023-11-22T05:33:10;1.55;;;0.57;;
69744;SDS011;57015;50.120;-5.168;2023-11-22T05:35:35;2.30;;;0.50;;
69744;SDS011;57015;50.120;-5.168;2023-11-22T05:38:00;3.53;;;0.93;;
69744;SDS011;57015;50.120;-5.168;2023-11-22T05:40:27;2.30;;;0.50;;
69744;SDS011;57015;50.120;-5.168;2023-11-22T05:42:52;1.90;;;0.30;;
69744;SDS011;57015;50.120;-5.168;2023-11-22T05:45:17;3.27;;;0.70;;
69744;SDS011;57015;50.120;-5.168;2023-11-22T05:47:43;3.30;;;0.70;;
69744;SDS011;57015;50.120;-5.168;2023-11-22T05:50:08;1.48;;;0.40;;
69744;SDS011;57015;50.120;-5.168;2023-11-22T05:52:34;3.90;;;0.60;;
69744;SDS011;57015;50.120;-5.168;2023-11-22T05:55:00;2.97;;;0.50;;
69744;SDS011;57015;50.120;-5.168;2023-11-22T05:57:29;6.28;;;0.82;;
69744;SDS011;57015;50.120;-5.168;2023-11-22T05:59:55;3.65;;;0.50;;
69744;SDS011;57015;50.120;-5.168;2023-11-22T06:02:20;1.13;;;0.30;;
69744;SDS011;57015;50.120;-5.168;2023-11-22T06:04:46;5.78;;;0.85;;
69744;SDS011;57015;50.120;-5.168;2023-11-22T06:07:11;3.27;;;0.90;;
69744;SDS011;57015;50.120;-5.168;2023-11-22T06:09:37;1.67;;;0.60;;
69744;SDS011;57015;50.120;-5.168;2023-11-22T06:12:02;4.40;;;0.40;;
69744;SDS011;57015;50.120;-5.168;2023-11-22T06:14:28;3.17;;;0.80;;
69744;SDS011;57015;50.120;-5.168;2023-11-22T06:16:53;3.53;;;0.70;;
69744;SDS011;57015;50.120;-5.168;2023-11-22T06:19:19;1.30;;;0.33;;
69744;SDS011;57015;50.120;-5.168;2023-11-22T06:21:44;2.43;;;0.70;;
69744;SDS011;57015;50.120;-5.168;2023-11-22T06:24:10;3.60;;;0.88;;
69744;SDS011;57015;50.120;-5.168;2023-11-22T06:26:40;2.30;;;0.80;;
69744;SDS011;57015;50.120;-5.168;2023-11-22T06:29:11;2.00;;;0.60;;
69744;SDS011;57015;50.120;-5.168;2023-11-22T06:31:36;2.13;;;1.08;;
69744;SDS011;57015;50.120;-5.168;2023-11-22T06:34:02;5.73;;;0.80;;
69744;SDS011;57015;50.120;-5.168;2023-11-22T06:36:27;1.23;;;0.43;;
69744;SDS011;57015;50.120;-5.168;2023-11-22T06:38:54;3.97;;;1.40;;
69744;SDS011;57015;50.120;-5.168;2023-11-22T06:41:19;2.40;;;0.60;;
69744;SDS011;57015;50.120;-5.168;2023-11-22T06:43:46;2.55;;;0.50;;
69744;SDS011;57015;50.120;-5.168;2023-11-22T06:46:12;3.55;;;0.88;;
69744;SDS011;57015;50.120;-5.168;2023-11-22T06:48:37;2.80;;;0.73;;
69744;SDS011;57015;50.120;-5.168;2023-11-22T06:51:03;3.30;;;0.70;;
69744;SDS011;57015;50.120;-5.168;2023-11-22T06:53:28;2.40;;;0.50;;
69744;SDS011;57015;50.120;-5.168;2023-11-22T06:55:53;3.97;;;0.67;;
69744;SDS011;57015;50.120;-5.168;2023-11-22T06:58:19;4.23;;;0.77;;
69744;SDS011;57015;50.120;-5.168;2023-11-22T07:00:44;3.00;;;0.63;;
69744;SDS011;57015;50.120;-5.168;2023-11-22T07:03:10;3.27;;;0.70;;
69744;SDS011;57015;50.120;-5.168;2023-11-22T07:05:36;1.40;;;0.40;;
69744;SDS011;57015;50.120;-5.168;2023-11-22T07:08:01;2.85;;;0.75;;
69744;SDS011;57015;50.120;-5.168;2023-11-22T07:10:28;1.43;;;0.50;;
69744;SDS011;57015;50.120;-5.168;2023-11-22T07:12:53;4.57;;;1.10;;
69744;SDS011;57015;50.120;-5.168;2023-11-22T07:15:19;4.23;;;0.60;;
69744;SDS011;57015;50.120;-5.168;2023-11-22T07:17:45;2.97;;;0.70;;
69744;SDS011;57015;50.120;-5.168;2023-11-22T07:20:11;1.60;;;0.60;;
69744;SDS011;57015;50.120;-5.168;2023-11-22T07:22:41;1.65;;;0.80;;
69744;SDS011;57015;50.120;-5.168;2023-11-22T07:25:08;2.83;;;0.70;;
69744;SDS011;57015;50.120;-5.168;2023-11-22T07:27:43;2.40;;;0.73;;
69744;SDS011;57015;50.120;-5.168;2023-11-22T07:30:09;2.00;;;0.70;;
69744;SDS011;57015;50.120;-5.168;2023-11-22T07:32:38;3.80;;;0.70;;
69744;SDS011;57015;50.120;-5.168;2023-11-22T07:35:04;3.08;;;0.75;;
69744;SDS011;57015;50.120;-5.168;2023-11-22T07:37:30;2.47;;;0.88;;
69744;SDS011;57015;50.120;-5.168;2023-11-22T07:39:56;4.57;;;0.80;;
69744;SDS011;57015;50.120;-5.168;2023-11-22T07:42:22;1.95;;;0.57;;
69744;SDS011;57015;50.120;-5.168;2023-11-22T07:44:48;2.33;;;0.70;;
69744;SDS011;57015;50.120;-5.168;2023-11-22T07:47:14;6.93;;;0.75;;
69744;SDS011;57015;50.120;-5.168;2023-11-22T07:49:41;4.60;;;0.82;;
69744;SDS011;57015;50.120;-5.168;2023-11-22T07:52:07;5.60;;;0.60;;
69744;SDS011;57015;50.120;-5.168;2023-11-22T07:54:32;4.07;;;0.73;;
69744;SDS011;57015;50.120;-5.168;2023-11-22T07:56:57;2.67;;;0.57;;
69744;SDS011;57015;50.120;-5.168;2023-11-22T07:59:23;1.70;;;0.70;;
69744;SDS011;57015;50.120;-5.168;2023-11-22T08:01:48;1.87;;;0.50;;
69744;SDS011;57015;50.120;-5.168;2023-11-22T08:04:14;2.63;;;0.57;;
69744;SDS011;57015;50.120;-5.168;2023-11-22T08:06:41;1.60;;;0.60;;
69744;SDS011;57015;50.120;-5.168;2023-11-22T08:09:07;4.77;;;1.00;;
69744;SDS011;57015;50.120;-5.168;2023-11-22T08:11:34;2.17;;;0.70;;
69744;SDS011;57015;50.120;-5.168;2023-11-22T08:14:00;4.38;;;0.70;;
69744;SDS011;57015;50.120;-5.168;2023-11-22T08:16:26;3.88;;;0.52;;
69744;SDS011;57015;50.120;-5.168;2023-11-22T08:18:52;2.95;;;0.47;;
69744;SDS011;57015;50.120;-5.168;2023-11-22T08:21:17;2.90;;;0.60;;
69744;SDS011;57015;50.120;-5.168;2023-11-22T08:23:43;3.63;;;0.50;;
69744;SDS011;57015;50.120;-5.168;2023-11-22T08:26:10;2.97;;;0.50;;
69744;SDS011;57015;50.120;-5.168;2023-11-22T08:28:37;2.03;;;0.50;;
69744;SDS011;57015;50.120;-5.168;2023-11-22T08:31:02;1.52;;;0.57;;
69744;SDS011;57015;50.120;-5.168;2023-11-22T08:33:29;2.72;;;0.68;;
69744;SDS011;57015;50.120;-5.168;2023-11-22T08:35:54;3.63;;;0.57;;
69744;SDS011;57015;50.120;-5.168;2023-11-22T08:38:24;2.53;;;0.68;;
69744;SDS011;57015;50.120;-5.168;2023-11-22T08:40:51;3.40;;;0.40;;
69744;SDS011;57015;50.120;-5.168;2023-11-22T08:43:17;4.80;;;0.57;;
69744;SDS011;57015;50.120;-5.168;2023-11-22T08:45:42;3.83;;;0.57;;
69744;SDS011;57015;50.120;-5.168;2023-11-22T08:48:09;3.08;;;0.77;;
69744;SDS011;57015;50.120;-5.168;2023-11-22T08:50:34;6.77;;;0.70;;
69744;SDS011;57015;50.120;-5.168;2023-11-22T08:53:00;2.33;;;0.73;;
69744;SDS011;57015;50.120;-5.168;2023-11-22T08:55:25;2.35;;;0.50;;
69744;SDS011;57015;50.120;-5.168;2023-11-22T08:57:51;4.07;;;0.60;;
69744;SDS011;57015;50.120;-5.168;2023-11-22T09:00:17;1.57;;;0.60;;
69744;SDS011;57015;50.120;-5.168;2023-11-22T09:02:47;2.42;;;0.70;;
69744;SDS011;57015;50.120;-5.168;2023-11-22T09:05:16;1.67;;;0.47;;
69744;SDS011;57015;50.120;-5.168;2023-11-22T09:07:42;2.30;;;0.63;;
69744;SDS011;57015;50.120;-5.168;2023-11-22T09:10:09;4.00;;;0.80;;
69744;SDS011;57015;50.120;-5.168;2023-11-22T09:12:39;3.55;;;0.77;;
69744;SDS011;57015;50.120;-5.168;2023-11-22T09:15:09;1.42;;;0.60;;
69744;SDS011;57015;50.120;-5.168;2023-11-22T09:17:39;1.60;;;0.60;;
69744;SDS011;57015;50.120;-5.168;2023-11-22T09:20:13;2.20;;;0.55;;
69744;SDS011;57015;50.120;-5.168;2023-11-22T09:22:46;3.90;;;0.60;;
69744;SDS011;57015;50.120;-5.168;2023-11-22T09:25:23;4.20;;;0.40;;
69744;SDS011;57015;50.120;-5.168;2023-11-22T09:27:50;3.63;;;0.80;;
69744;SDS011;57015;50.120;-5.168;2023-11-22T09:30:19;3.55;;;0.50;;
69744;SDS011;57015;50.120;-5.168;2023-11-22T09:33:00;1.88;;;0.95;;
69744;SDS011;57015;50.120;-5.168;2023-11-22T09:35:46;2.27;;;0.40;;
69744;SDS011;57015;50.120;-5.168;2023-11-22T09:38:12;3.63;;;0.85;;
69744;SDS011;57015;50.120;-5.168;2023-11-22T09:40:40;3.73;;;0.77;;
69744;SDS011;57015;50.120;-5.168;2023-11-22T09:43:07;3.03;;;0.95;;
69744;SDS011;57015;50.120;-5.168;2023-11-22T09:45:32;4.83;;;1.20;;
69744;SDS011;57015;50.120;-5.168;2023-11-22T09:47:58;5.57;;;0.88;;
69744;SDS011;57015;50.120;-5.168;2023-11-22T09:53:40;10.68;;;1.83;;
69744;SDS011;57015;50.120;-5.168;2023-11-22T09:56:21;6.38;;;1.88;;
69744;SDS011;57015;50.120;-5.168;2023-11-22T09:58:48;8.25;;;1.90;;
69744;SDS011;57015;50.120;-5.168;2023-11-22T10:01:16;8.32;;;1.73;;
69744;SDS011;57015;50.120;-5.168;2023-11-22T10:03:42;8.43;;;1.00;;
69744;SDS011;57015;50.120;-5.168;2023-11-22T10:06:07;8.03;;;1.40;;
69744;SDS011;57015;50.120;-5.168;2023-11-22T10:08:33;2.77;;;1.10;;
69744;SDS011;57015;50.120;-5.168;2023-11-22T10:11:00;5.75;;;1.30;;
69744;SDS011;57015;50.120;-5.168;2023-11-22T10:13:26;4.87;;;1.33;;
69744;SDS011;57015;50.120;-5.168;2023-11-22T10:15:51;6.93;;;1.55;;
69744;SDS011;57015;50.120;-5.168;2023-11-22T10:18:18;5.83;;;1.30;;
69744;SDS011;57015;50.120;-5.168;2023-11-22T10:20:44;8.45;;;1.50;;
69744;SDS011;57015;50.120;-5.168;2023-11-22T10:23:15;4.28;;;1.10;;
69744;SDS011;57015;50.120;-5.168;2023-11-22T10:25:50;5.35;;;1.52;;
69744;SDS011;57015;50.120;-5.168;2023-11-22T10:28:19;2.55;;;0.50;;
69744;SDS011;57015;50.120;-5.168;2023-11-22T10:30:46;2.57;;;0.30;;
69744;SDS011;57015;50.120;-5.168;2023-11-22T10:33:13;3.00;;;0.45;;
69744;SDS011;57015;50.120;-5.168;2023-11-22T10:35:41;3.47;;;0.30;;
69744;SDS011;57015;50.120;-5.168;2023-11-22T10:38:16;3.95;;;0.30;;
69744;SDS011;57015;50.120;-5.168;2023-11-22T10:40:43;2.10;;;0.40;;
69744;SDS011;57015;50.120;-5.168;2023-11-22T10:43:12;4.87;;;0.40;;
69744;SDS011;57015;50.120;-5.168;2023-11-22T10:45:38;3.47;;;0.57;;
69744;SDS011;57015;50.120;-5.168;2023-11-22T10:48:04;5.10;;;0.95;;
69744;SDS011;57015;50.120;-5.168;2023-11-22T10:50:31;1.58;;;0.30;;
69744;SDS011;57015;50.120;-5.168;2023-11-22T10:52:57;4.13;;;0.30;;
69744;SDS011;57015;50.120;-5.168;2023-11-22T10:55:28;1.40;;;0.30;;
69744;SDS011;57015;50.120;-5.168;2023-11-22T10:58:01;1.25;;;0.17;;
69744;SDS011;57015;50.120;-5.168;2023-11-22T11:00:27;3.77;;;0.53;;
69744;SDS011;57015;50.120;-5.168;2023-11-22T11:02:58;2.63;;;0.55;;
69744;SDS011;57015;50.120;-5.168;2023-11-22T11:05:30;3.05;;;0.60;;
69744;SDS011;57015;50.120;-5.168;2023-11-22T11:08:07;3.58;;;0.68;;
69744;SDS011;57015;50.120;-5.168;2023-11-22T11:10:38;3.90;;;0.93;;
69744;SDS011;57015;50.120;-5.168;2023-11-22T11:13:07;8.60;;;2.93;;
69744;SDS011;57015;50.120;-5.168;2023-11-22T11:15:39;10.77;;;3.90;;
69744;SDS011;57015;50.120;-5.168;2023-11-22T11:18:06;5.50;;;1.83;;
69744;SDS011;57015;50.120;-5.168;2023-11-22T11:20:55;4.95;;;1.30;;
69744;SDS011;57015;50.120;-5.168;2023-11-22T11:23:25;1.73;;;0.40;;
69744;SDS011;57015;50.120;-5.168;2023-11-22T11:25:55;1.87;;;0.30;;
69744;SDS011;57015;50.120;-5.168;2023-11-22T11:28:24;1.85;;;0.30;;
69744;SDS011;57015;50.120;-5.168;2023-11-22T11:30:56;1.98;;;0.22;;
69744;SDS011;57015;50.120;-5.168;2023-11-22T11:33:34;0.90;;;0.20;;
69744;SDS011;57015;50.120;-5.168;2023-11-22T11:36:02;4.72;;;0.40;;
69744;SDS011;57015;50.120;-5.168;2023-11-22T11:38:32;1.40;;;0.23;;
69744;SDS011;57015;50.120;-5.168;2023-11-22T11:41:06;3.22;;;0.40;;
69744;SDS011;57015;50.120;-5.168;2023-11-22T11:43:45;2.17;;;0.63;;
69744;SDS011;57015;50.120;-5.168;2023-11-22T11:46:11;2.20;;;0.40;;
69744;SDS011;57015;50.120;-5.168;2023-11-22T11:48:37;2.40;;;0.52;;
69744;SDS011;57015;50.120;-5.168;2023-11-22T11:51:07;2.00;;;0.30;;
69744;SDS011;57015;50.120;-5.168;2023-11-22T11:53:32;6.60;;;0.80;;
69744;SDS011;57015;50.120;-5.168;2023-11-22T11:55:58;2.30;;;0.65;;
69744;SDS011;57015;50.120;-5.168;2023-11-22T11:58:23;3.63;;;0.70;;
69744;SDS011;57015;50.120;-5.168;2023-11-22T12:00:54;3.72;;;0.73;;
69744;SDS011;57015;50.120;-5.168;2023-11-22T12:03:19;1.65;;;0.35;;
69744;SDS011;57015;50.120;-5.168;2023-11-22T12:05:46;2.03;;;0.80;;
69744;SDS011;57015;50.120;-5.168;2023-11-22T12:08:13;2.53;;;0.60;;
69744;SDS011;57015;50.120;-5.168;2023-11-22T12:10:40;3.40;;;0.57;;
69744;SDS011;57015;50.120;-5.168;2023-11-22T12:13:06;2.57;;;0.67;;
69744;SDS011;57015;50.120;-5.168;2023-11-22T12:15:33;2.00;;;0.30;;
69744;SDS011;57015;50.120;-5.168;2023-11-22T12:17:59;1.55;;;0.40;;
69744;SDS011;57015;50.120;-5.168;2023-11-22T12:20:26;1.63;;;0.30;;
69744;SDS011;57015;50.120;-5.168;2023-11-22T12:22:56;1.33;;;0.30;;
69744;SDS011;57015;50.120;-5.168;2023-11-22T12:25:22;2.10;;;0.30;;
69744;SDS011;57015;50.120;-5.168;2023-11-22T12:27:53;1.10;;;0.65;;
69744;SDS011;57015;50.120;-5.168;2023-11-22T12:30:29;0.63;;;0.13;;
69744;SDS011;57015;50.120;-5.168;2023-11-22T12:32:56;0.63;;;0.20;;
69744;SDS011;57015;50.120;-5.168;2023-11-22T12:35:22;0.67;;;0.20;;
69744;SDS011;57015;50.120;-5.168;2023-11-22T12:37:48;1.55;;;0.28;;
69744;SDS011;57015;50.120;-5.168;2023-11-22T12:40:14;0.70;;;0.20;;
69744;SDS011;57015;50.120;-5.168;2023-11-22T12:42:49;0.70;;;0.20;;
69744;SDS011;57015;50.120;-5.168;2023-11-22T12:45:19;2.45;;;0.22;;
69744;SDS011;57015;50.120;-5.168;2023-11-22T12:47:49;1.63;;;0.20;;
69744;SDS011;57015;50.120;-5.168;2023-11-22T12:53:09;1.67;;;0.13;;
69744;SDS011;57015;50.120;-5.168;2023-11-22T12:55:41;1.58;;;0.32;;
69744;SDS011;57015;50.120;-5.168;2023-11-22T12:58:08;1.63;;;0.30;;
69744;SDS011;57015;50.120;-5.168;2023-11-22T13:00:33;2.50;;;0.40;;
69744;SDS011;57015;50.120;-5.168;2023-11-22T13:02:59;0.83;;;0.20;;
69744;SDS011;57015;50.120;-5.168;2023-11-22T13:05:24;2.22;;;0.20;;
69744;SDS011;57015;50.120;-5.168;2023-11-22T13:07:50;1.40;;;0.20;;
69744;SDS011;57015;50.120;-5.168;2023-11-22T13:10:16;0.82;;;0.20;;
69744;SDS011;57015;50.120;-5.168;2023-11-22T13:12:42;2.47;;;0.30;;
69744;SDS011;57015;50.120;-5.168;2023-11-22T13:15:11;1.67;;;0.35;;
69744;SDS011;57015;50.120;-5.168;2023-11-22T13:17:37;0.68;;;0.10;;
69744;SDS011;57015;50.120;-5.168;2023-11-22T13:20:06;0.82;;;0.10;;
69744;SDS011;57015;50.120;-5.168;2023-11-22T13:22:39;1.85;;;0.30;;
69744;SDS011;57015;50.120;-5.168;2023-11-22T13:25:05;0.60;;;0.20;;
69744;SDS011;57015;50.120;-5.168;2023-11-22T13:27:31;0.70;;;0.10;;
69744;SDS011;57015;50.120;-5.168;2023-11-22T13:29:56;0.83;;;0.10;;
69744;SDS011;57015;50.120;-5.168;2023-11-22T13:32:23;1.67;;;0.20;;
69744;SDS011;57015;50.120;-5.168;2023-11-22T13:34:49;1.75;;;0.20;;
69744;SDS011;57015;50.120;-5.168;2023-11-22T13:37:22;2.15;;;0.20;;
69744;SDS011;57015;50.120;-5.168;2023-11-22T13:39:49;2.58;;;0.20;;
69744;SDS011;57015;50.120;-5.168;2023-11-22T13:42:14;0.87;;;0.10;;
69744;SDS011;57015;50.120;-5.168;2023-11-22T13:44:39;2.60;;;0.35;;
69744;SDS011;57015;50.120;-5.168;2023-11-22T13:47:06;1.80;;;0.20;;
69744;SDS011;57015;50.120;-5.168;2023-11-22T13:49:33;1.30;;;0.10;;
69744;SDS011;57015;50.120;-5.168;2023-11-22T13:51:58;0.80;;;0.20;;
69744;SDS011;57015;50.120;-5.168;2023-11-22T13:54:24;0.97;;;0.30;;
69744;SDS011;57015;50.120;-5.168;2023-11-22T13:56:49;0.97;;;0.23;;
69744;SDS011;57015;50.120;-5.168;2023-11-22T13:59:15;1.60;;;0.30;;
69744;SDS011;57015;50.120;-5.168;2023-11-22T14:01:40;0.90;;;0.20;;
69744;SDS011;57015;50.120;-5.168;2023-11-22T14:04:05;1.77;;;0.25;;
69744;SDS011;57015;50.120;-5.168;2023-11-22T14:06:31;0.70;;;0.20;;
69744;SDS011;57015;50.120;-5.168;2023-11-22T14:08:56;1.97;;;0.40;;
69744;SDS011;57015;50.120;-5.168;2023-11-22T14:11:22;1.90;;;0.20;;
69744;SDS011;57015;50.120;-5.168;2023-11-22T14:13:47;0.83;;;0.30;;
69744;SDS011;57015;50.120;-5.168;2023-11-22T14:16:13;1.23;;;0.60;;
69744;SDS011;57015;50.120;-5.168;2023-11-22T14:18:40;1.03;;;0.20;;
69744;SDS011;57015;50.120;-5.168;2023-11-22T14:21:05;0.90;;;0.20;;
69744;SDS011;57015;50.120;-5.168;2023-11-22T14:23:31;1.77;;;0.30;;
69744;SDS011;57015;50.120;-5.168;2023-11-22T14:25:56;2.63;;;0.30;;
69744;SDS011;57015;50.120;-5.168;2023-11-22T14:28:22;0.95;;;0.30;;
69744;SDS011;57015;50.120;-5.168;2023-11-22T14:30:48;0.60;;;0.20;;
69744;SDS011;57015;50.120;-5.168;2023-11-22T14:33:19;2.03;;;0.20;;
69744;SDS011;57015;50.120;-5.168;2023-11-22T14:35:44;1.88;;;0.30;;
69744;SDS011;57015;50.120;-5.168;2023-11-22T14:38:10;1.33;;;0.10;;